createdAt,value
2023-03-22T00:01:30.662Z,23.36
2023-03-22T00:05:31.111Z,23.35
2023-03-22T00:56:26.665Z,22.95
2023-03-22T01:00:27.748Z,23.30
2023-03-22T01:04:27.936Z,23.35
2023-03-22T01:08:28.142Z,23.36
2023-03-22T01:12:28.389Z,23.37
2023-03-22T01:16:28.636Z,23.36
2023-03-22T03:08:38.360Z,23.37
2023-03-22T03:12:35.402Z,23.38
2023-03-22T03:16:36.213Z,23.39
2023-03-22T03:20:35.483Z,23.38
2023-03-22T03:24:35.458Z,23.37
2023-03-22T03:28:35.479Z,23.38
2023-03-22T03:32:36.185Z,23.37
2023-03-22T03:36:36.217Z,23.37
2023-03-22T03:40:36.177Z,23.38
2023-03-22T03:44:36.340Z,23.38
2023-03-22T04:52:42.891Z,23.38
2023-03-22T05:32:41.085Z,23.40
2023-03-22T05:36:41.107Z,23.39
2023-03-22T05:40:41.697Z,23.40
2023-03-22T05:44:41.479Z,23.40
2023-03-22T05:48:41.705Z,23.40
2023-03-22T05:52:41.934Z,23.40
2023-03-22T05:56:42.171Z,23.41
2023-03-22T08:08:45.532Z,23.77
2023-03-22T08:28:49.193Z,23.78
2023-03-22T08:32:46.486Z,23.78
2023-03-22T08:36:45.983Z,23.88
2023-03-22T09:32:45.982Z,24.44
2023-03-22T09:36:45.498Z,24.49
2023-03-22T09:40:45.499Z,24.55
2023-03-22T09:44:45.532Z,24.57
2023-03-22T09:48:48.332Z,24.62
2023-03-22T09:52:45.506Z,24.65
2023-03-22T09:56:45.548Z,24.70
2023-03-22T10:04:45.505Z,24.81
2023-03-22T10:08:46.255Z,24.85
2023-03-22T10:12:45.509Z,24.86
2023-03-22T10:16:45.172Z,24.88
2023-03-22T10:20:45.514Z,24.91
2023-03-22T10:24:45.537Z,24.92
2023-03-22T10:28:45.545Z,24.94
2023-03-22T10:32:57.146Z,24.96
2023-03-22T10:36:46.056Z,24.89
2023-03-22T10:40:46.024Z,24.88
2023-03-22T10:44:46.050Z,24.90
2023-03-22T10:48:45.557Z,24.92
2023-03-22T10:52:45.533Z,24.92
2023-03-22T10:56:46.322Z,24.94
2023-03-22T11:00:46.105Z,24.93
2023-03-22T11:04:45.562Z,24.91
2023-03-22T11:08:45.535Z,24.90
2023-03-22T11:12:45.541Z,24.90
2023-03-22T11:21:03.820Z,24.88
2023-03-22T11:25:04.802Z,24.92
2023-03-22T11:29:04.767Z,24.92
2023-03-22T11:33:04.306Z,24.59
2023-03-22T11:37:04.320Z,24.23
2023-03-22T11:41:03.784Z,24.10
2023-03-22T11:45:03.704Z,24.16
2023-03-22T11:49:03.877Z,24.18
2023-03-22T11:53:03.804Z,24.20
2023-03-22T11:57:03.837Z,24.25
2023-03-22T12:01:03.783Z,24.29
2023-03-22T12:05:03.810Z,24.28
2023-03-22T12:09:04.317Z,24.29
2023-03-22T12:13:03.793Z,24.31
2023-03-22T12:17:14.294Z,24.32
2023-03-22T12:21:03.319Z,24.32
2023-03-22T12:25:03.361Z,24.31
2023-03-22T12:29:03.001Z,24.30
2023-03-22T12:33:03.374Z,24.31
2023-03-22T12:37:03.359Z,24.38
2023-03-22T12:41:02.881Z,24.44
2023-03-22T12:45:05.533Z,24.52
2023-03-22T12:49:03.018Z,24.48
2023-03-22T12:53:02.321Z,24.54
2023-03-22T12:57:02.357Z,24.59
2023-03-22T13:01:02.397Z,24.62
2023-03-22T13:05:02.339Z,24.62
2023-03-22T13:09:01.759Z,24.66
2023-03-22T13:13:01.858Z,24.72
2023-03-22T13:17:01.889Z,24.78
2023-03-22T13:21:01.869Z,24.82
2023-03-22T13:25:01.340Z,24.86
2023-03-22T13:29:01.372Z,24.86
2023-03-22T13:33:01.427Z,24.89
2023-03-22T13:37:00.846Z,24.94
2023-03-22T13:41:00.843Z,24.97
2023-03-22T13:45:00.592Z,25.01
2023-03-22T13:49:01.157Z,25.06
2023-03-22T13:53:00.353Z,25.11
2023-03-22T13:57:00.352Z,25.09
2023-03-22T14:01:00.448Z,25.04
2023-03-22T14:05:00.355Z,24.97
2023-03-22T14:09:00.350Z,24.92
2023-03-22T14:13:00.356Z,24.87
2023-03-22T14:16:59.884Z,24.81
2023-03-22T15:08:57.968Z,24.40
2023-03-22T15:12:59.373Z,24.37
2023-03-22T15:16:59.376Z,24.36
2023-03-22T17:09:00.412Z,24.07
2023-03-22T17:13:00.665Z,24.07
2023-03-22T17:17:00.745Z,24.06
2023-03-22T17:21:00.852Z,24.04
2023-03-22T17:25:00.996Z,24.03
2023-03-22T17:29:01.130Z,24.02
2023-03-22T17:33:01.840Z,24.01
2023-03-22T17:37:01.326Z,23.99
2023-03-22T17:41:02.731Z,23.97
2023-03-22T17:45:01.598Z,23.97
2023-03-22T17:49:01.690Z,23.95
2023-03-22T17:53:01.816Z,23.94
2023-03-22T17:57:26.179Z,23.92
2023-03-22T18:01:01.453Z,23.90
2023-03-22T18:05:01.289Z,23.89
2023-03-22T18:09:01.351Z,23.87
2023-03-22T18:13:01.120Z,23.86
2023-03-22T18:17:01.119Z,23.85
2023-03-22T18:21:01.156Z,23.83
2023-03-22T18:25:00.997Z,23.82
2023-03-22T18:29:01.168Z,23.81
2023-03-22T18:33:06.160Z,23.80
2023-03-22T18:37:01.342Z,23.78
2023-03-22T18:41:31.545Z,23.77
2023-03-22T18:45:01.632Z,23.75
2023-03-22T18:49:01.033Z,23.74
2023-03-22T18:57:00.871Z,23.71
2023-03-22T19:01:00.910Z,23.69
2023-03-22T19:05:00.771Z,23.68
2023-03-22T19:09:00.736Z,23.65
2023-03-22T19:13:00.618Z,23.65
2023-03-22T19:17:00.609Z,23.63
2023-03-22T19:21:10.066Z,23.61
2023-03-22T19:25:00.536Z,23.60
2023-03-22T19:29:00.485Z,23.58
2023-03-22T19:33:24.283Z,23.58
2023-03-22T19:37:00.368Z,23.56
2023-03-22T19:41:38.711Z,23.55
2023-03-22T19:45:00.217Z,23.53
2023-03-22T19:49:00.180Z,23.51
2023-03-22T19:53:14.328Z,23.51
2023-03-22T19:57:00.053Z,23.49
2023-03-22T20:00:59.987Z,23.48
2023-03-22T20:05:02.874Z,23.48
2023-03-22T20:08:59.881Z,23.47
2023-03-22T20:12:59.810Z,23.47
2023-03-22T20:17:05.560Z,23.45
2023-03-22T20:20:59.711Z,23.42
2023-03-22T20:24:59.690Z,23.43
2023-03-22T20:28:59.619Z,23.41
2023-03-22T20:32:59.561Z,23.41
2023-03-22T20:36:59.512Z,23.39
2023-03-22T20:40:59.484Z,23.39
2023-03-22T20:44:59.402Z,23.38
2023-03-22T20:48:59.548Z,23.36
2023-03-22T20:52:59.491Z,23.35
2023-03-22T20:56:59.462Z,23.34
